createdAt,value
2023-01-30T00:01:25.737Z,24.48
2023-01-30T00:03:52.695Z,26.50
2023-01-30T00:06:19.654Z,27.27
2023-01-30T00:08:47.132Z,23.65
2023-01-30T00:11:15.778Z,23.20
2023-01-30T00:13:43.201Z,28.00
2023-01-30T00:16:10.707Z,19.25
2023-01-30T00:18:38.587Z,27.65
2023-01-30T00:21:07.806Z,18.42
2023-01-30T00:23:35.761Z,19.00
2023-01-30T00:26:03.386Z,19.27
2023-01-30T00:28:30.368Z,21.10
2023-01-30T00:30:57.454Z,20.35
2023-01-30T00:33:26.205Z,27.83
2023-01-30T00:35:55.225Z,29.27
2023-01-30T00:38:22.640Z,22.77
2023-01-30T00:40:49.916Z,27.55
2023-01-30T00:43:37.733Z,20.42
2023-01-30T00:46:30.394Z,24.17
2023-01-30T00:48:57.293Z,21.85
2023-01-30T00:51:24.077Z,27.40
2023-01-30T00:53:50.901Z,21.95
2023-01-30T00:56:17.609Z,21.20
2023-01-30T00:58:44.483Z,20.75
2023-01-30T01:01:11.291Z,27.52
2023-01-30T01:03:38.122Z,21.45
2023-01-30T01:06:05.290Z,20.40
2023-01-30T01:08:32.117Z,20.73
2023-01-30T01:10:59.079Z,18.45
2023-01-30T01:13:25.848Z,28.52
2023-01-30T01:15:52.540Z,18.40
2023-01-30T01:18:19.289Z,20.05
2023-01-30T01:20:46.270Z,22.00
2023-01-30T01:23:13.009Z,19.55
2023-01-30T01:25:39.779Z,22.85
2023-01-30T01:28:06.526Z,17.42
2023-01-30T01:30:33.300Z,24.38
2023-01-30T01:33:00.263Z,20.35
2023-01-30T01:35:26.940Z,20.73
2023-01-30T01:37:54.817Z,25.25
2023-01-30T01:40:41.668Z,22.27
2023-01-30T01:43:20.536Z,21.27
2023-01-30T01:45:50.096Z,22.98
2023-01-30T01:48:24.016Z,23.50
2023-01-30T01:51:16.643Z,17.30
2023-01-30T01:53:57.381Z,23.98
2023-01-30T01:56:25.037Z,33.72
2023-01-30T01:58:56.754Z,32.85
2023-01-30T02:01:23.696Z,26.40
2023-01-30T02:03:56.767Z,28.88
2023-01-30T02:06:23.785Z,27.35
2023-01-30T02:08:55.062Z,26.95
2023-01-30T02:11:25.107Z,22.27
2023-01-30T02:13:52.014Z,25.75
2023-01-30T02:16:18.786Z,29.25
2023-01-30T02:18:46.977Z,19.23
2023-01-30T02:21:51.247Z,28.23
2023-01-30T02:24:32.242Z,23.05
2023-01-30T02:27:07.941Z,24.73
2023-01-30T02:29:52.694Z,23.73
2023-01-30T02:32:28.556Z,23.45
2023-01-30T02:35:01.650Z,29.35
2023-01-30T02:37:36.983Z,30.55
2023-01-30T02:40:25.398Z,28.27
2023-01-30T02:43:13.730Z,27.08
2023-01-30T02:45:55.850Z,35.00
2023-01-30T02:48:25.570Z,36.53
2023-01-30T02:51:19.583Z,35.78
2023-01-30T02:53:48.645Z,32.55
2023-01-30T02:56:15.857Z,26.65
2023-01-30T02:59:06.955Z,34.10
2023-01-30T03:02:30.090Z,29.05
2023-01-30T03:05:11.329Z,32.38
2023-01-30T03:07:43.717Z,31.17
2023-01-30T03:10:20.050Z,28.08
2023-01-30T03:12:52.614Z,30.75
2023-01-30T03:15:51.087Z,29.17
2023-01-30T03:18:19.596Z,29.08
2023-01-30T03:20:47.140Z,29.00
2023-01-30T03:23:14.275Z,29.38
2023-01-30T03:25:43.997Z,28.40
2023-01-30T03:28:12.681Z,27.70
2023-01-30T03:30:39.454Z,29.80
2023-01-30T03:33:06.251Z,28.85
2023-01-30T03:35:33.007Z,31.02
2023-01-30T03:37:59.807Z,33.75
2023-01-30T03:40:26.725Z,27.08
2023-01-30T03:42:53.445Z,31.13
2023-01-30T03:45:20.389Z,26.77
2023-01-30T03:47:47.393Z,31.10
2023-01-30T03:50:14.170Z,28.02
2023-01-30T03:52:40.915Z,24.75
2023-01-30T03:55:08.134Z,28.08
2023-01-30T03:57:34.842Z,27.70
2023-01-30T04:00:01.713Z,28.02
2023-01-30T04:02:28.524Z,29.35
2023-01-30T04:04:55.254Z,26.13
2023-01-30T04:07:22.147Z,28.90
2023-01-30T04:09:48.912Z,24.60
2023-01-30T04:12:15.633Z,28.65
2023-01-30T04:14:42.384Z,25.02
2023-01-30T04:17:09.335Z,29.73
2023-01-30T04:19:36.074Z,27.65
2023-01-30T04:22:02.778Z,25.40
2023-01-30T04:24:29.446Z,24.63
2023-01-30T04:26:56.117Z,24.52
2023-01-30T04:29:22.813Z,36.25
2023-01-30T04:31:49.663Z,32.88
2023-01-30T04:34:16.571Z,29.40
2023-01-30T04:36:43.303Z,27.98
2023-01-30T04:39:10.061Z,30.48
2023-01-30T04:41:36.805Z,28.60
2023-01-30T04:44:03.684Z,24.85
2023-01-30T04:46:30.436Z,26.45
2023-01-30T04:48:57.147Z,28.80
2023-01-30T04:51:23.883Z,26.95
2023-01-30T04:53:50.620Z,40.15
2023-01-30T04:56:17.441Z,32.05
2023-01-30T04:58:44.168Z,62.00
2023-01-30T05:01:16.848Z,41.90
2023-01-30T05:03:43.645Z,25.30
2023-01-30T05:06:10.360Z,31.58
2023-01-30T05:08:37.117Z,26.88
2023-01-30T05:11:03.910Z,26.02
2023-01-30T05:13:30.676Z,25.20
2023-01-30T05:15:57.500Z,19.48
2023-01-30T05:18:24.257Z,19.58
2023-01-30T05:20:51.020Z,23.80
2023-01-30T05:23:17.808Z,24.10
2023-01-30T05:25:44.612Z,24.05
2023-01-30T05:28:11.403Z,22.92
2023-01-30T05:30:38.391Z,17.77
2023-01-30T05:33:05.079Z,21.30
2023-01-30T05:35:31.796Z,22.48
2023-01-30T05:37:59.537Z,22.23
2023-01-30T05:40:27.942Z,19.25
2023-01-30T05:42:54.643Z,24.85
2023-01-30T05:45:21.365Z,21.92
2023-01-30T05:47:53.618Z,25.33
2023-01-30T05:50:21.705Z,23.05
2023-01-30T05:52:48.464Z,19.02
2023-01-30T05:55:15.295Z,21.08
2023-01-30T05:57:42.121Z,18.42
2023-01-30T06:00:10.672Z,17.63
2023-01-30T06:02:37.370Z,20.08
2023-01-30T06:05:04.311Z,17.42
2023-01-30T06:07:31.600Z,20.15
2023-01-30T06:09:58.348Z,19.30
2023-01-30T06:12:25.082Z,18.48
2023-01-30T06:14:51.902Z,18.50
2023-01-30T06:17:18.631Z,19.05
2023-01-30T06:19:45.313Z,20.45
2023-01-30T06:22:12.028Z,20.75
2023-01-30T06:24:38.755Z,17.30
2023-01-30T06:27:05.496Z,21.65
2023-01-30T06:29:32.276Z,21.77
2023-01-30T06:31:58.957Z,21.27
2023-01-30T06:34:25.679Z,29.55
2023-01-30T06:36:52.515Z,20.40
2023-01-30T06:39:19.229Z,19.25
2023-01-30T06:41:45.951Z,18.67
2023-01-30T06:44:12.786Z,20.92
2023-01-30T06:46:39.450Z,21.33
2023-01-30T06:49:06.190Z,18.20
2023-01-30T06:51:32.866Z,18.52
2023-01-30T06:53:59.948Z,17.63
2023-01-30T06:56:26.623Z,20.30
2023-01-30T06:58:53.403Z,17.02
2023-01-30T07:01:21.284Z,24.98
2023-01-30T07:03:48.551Z,14.40
2023-01-30T07:06:15.376Z,19.40
2023-01-30T07:08:42.161Z,15.13
2023-01-30T07:11:08.841Z,17.98
2023-01-30T07:13:35.608Z,17.23
2023-01-30T07:16:02.352Z,16.17
2023-01-30T07:18:29.090Z,16.42
2023-01-30T07:20:55.766Z,17.48
2023-01-30T07:23:22.497Z,15.75
2023-01-30T07:25:49.278Z,19.15
2023-01-30T07:28:16.066Z,20.30
2023-01-30T07:30:43.028Z,20.63
2023-01-30T07:33:12.037Z,17.45
2023-01-30T07:35:39.031Z,19.23
2023-01-30T07:38:06.242Z,17.65
2023-01-30T07:40:33.114Z,18.70
2023-01-30T07:43:01.296Z,15.38
2023-01-30T07:45:38.387Z,17.92
2023-01-30T07:48:06.013Z,12.65
2023-01-30T07:50:33.210Z,17.25
2023-01-30T07:53:02.260Z,14.13
2023-01-30T07:55:29.097Z,18.48
2023-01-30T07:57:55.874Z,15.57
2023-01-30T08:00:22.813Z,18.20
2023-01-30T08:02:49.510Z,21.27
2023-01-30T08:05:16.648Z,17.40
2023-01-30T08:07:43.353Z,25.25
2023-01-30T08:10:12.092Z,17.08
2023-01-30T08:12:40.597Z,12.85
2023-01-30T08:15:09.134Z,17.17
2023-01-30T08:17:35.990Z,13.85
2023-01-30T08:20:02.858Z,21.65
2023-01-30T08:22:29.675Z,19.40
2023-01-30T08:24:56.543Z,16.38
2023-01-30T08:27:23.275Z,16.98
2023-01-30T08:29:49.981Z,19.25
2023-01-30T08:32:16.680Z,14.18
2023-01-30T08:34:43.350Z,11.10
2023-01-30T08:37:10.125Z,12.80
2023-01-30T08:39:37.403Z,8.52
2023-01-30T08:42:04.275Z,13.18
2023-01-30T08:44:31.017Z,16.10
2023-01-30T08:46:57.781Z,14.90
2023-01-30T08:49:24.613Z,14.57
2023-01-30T08:51:51.354Z,10.40
2023-01-30T08:54:18.045Z,10.40
2023-01-30T08:56:44.827Z,14.32
2023-01-30T08:59:11.609Z,10.15
2023-01-30T09:01:38.490Z,13.95
2023-01-30T09:04:05.402Z,11.80
2023-01-30T09:06:32.232Z,10.45
2023-01-30T09:09:00.286Z,12.63
2023-01-30T09:11:27.151Z,13.35
2023-01-30T09:13:53.885Z,9.52
2023-01-30T09:16:20.717Z,10.75
2023-01-30T09:18:47.501Z,9.13
2023-01-30T09:21:14.575Z,8.70
2023-01-30T09:23:41.691Z,7.40
2023-01-30T09:26:08.585Z,9.70
2023-01-30T09:28:35.615Z,6.72
2023-01-30T09:31:02.934Z,8.73
2023-01-30T09:33:30.029Z,11.10
2023-01-30T09:35:57.147Z,9.05
2023-01-30T09:38:23.825Z,9.65
2023-01-30T09:41:26.989Z,11.88
2023-01-30T09:44:10.893Z,9.02
2023-01-30T09:46:46.464Z,9.77
2023-01-30T09:49:29.906Z,8.50
2023-01-30T09:52:15.672Z,11.50
2023-01-30T09:54:45.250Z,9.27
2023-01-30T09:57:20.894Z,10.38
2023-01-30T10:00:02.307Z,9.63
2023-01-30T10:02:47.568Z,10.55
2023-01-30T10:05:14.535Z,10.52
2023-01-30T10:08:18.189Z,11.43
2023-01-30T10:11:04.319Z,10.15
2023-01-30T10:13:44.036Z,9.93
2023-01-30T10:16:39.906Z,9.30
2023-01-30T10:19:36.396Z,10.45
2023-01-30T10:22:45.759Z,12.32
2023-01-30T10:25:28.639Z,12.52
2023-01-30T10:28:11.251Z,11.52
2023-01-30T10:30:39.018Z,8.63
2023-01-30T10:33:20.414Z,7.93
2023-01-30T10:36:02.180Z,9.40
2023-01-30T10:38:50.269Z,10.40
2023-01-30T10:41:26.745Z,10.68
2023-01-30T10:44:00.973Z,14.65
2023-01-30T10:46:39.572Z,12.05
2023-01-30T10:49:14.347Z,12.73
2023-01-30T10:51:59.294Z,9.57
2023-01-30T10:54:39.147Z,11.07
2023-01-30T10:57:19.664Z,12.07
2023-01-30T11:00:16.267Z,4.60
2023-01-30T11:03:11.825Z,6.00
2023-01-30T11:05:51.360Z,5.40
2023-01-30T11:08:22.653Z,5.50
2023-01-30T11:10:51.051Z,5.05
2023-01-30T11:13:26.596Z,6.25
2023-01-30T11:15:55.751Z,5.32
2023-01-30T11:21:27.037Z,6.88
2023-01-30T11:24:05.843Z,5.28
2023-01-30T11:26:46.667Z,5.78
2023-01-30T11:29:22.965Z,5.45
2023-01-30T11:31:51.276Z,5.93
2023-01-30T11:34:19.985Z,7.38
2023-01-30T11:36:47.568Z,6.63
2023-01-30T11:39:15.741Z,7.13
2023-01-30T11:41:57.442Z,5.43
2023-01-30T11:44:40.201Z,5.38
2023-01-30T11:47:21.546Z,6.35
2023-01-30T11:50:06.423Z,7.90
2023-01-30T11:52:43.216Z,12.38
2023-01-30T11:55:16.367Z,8.73
2023-01-30T11:57:51.173Z,7.68
2023-01-30T12:00:22.568Z,7.18
2023-01-30T12:02:52.338Z,10.43
2023-01-30T12:05:28.517Z,7.53
2023-01-30T12:08:24.721Z,7.05
2023-01-30T12:11:01.497Z,8.85
2023-01-30T12:13:38.329Z,9.45
2023-01-30T12:16:11.784Z,5.43
2023-01-30T12:18:52.373Z,5.82
2023-01-30T12:21:36.267Z,5.47
2023-01-30T12:24:20.791Z,4.65
2023-01-30T12:26:55.090Z,6.82
2023-01-30T12:29:35.978Z,5.57
2023-01-30T12:34:33.590Z,6.18
2023-01-30T12:37:30.851Z,5.22
2023-01-30T12:40:22.225Z,5.43
2023-01-30T12:42:48.934Z,5.80
2023-01-30T12:45:23.038Z,5.50
2023-01-30T12:48:16.092Z,5.13
2023-01-30T12:50:54.495Z,5.70
2023-01-30T12:53:47.543Z,5.80
2023-01-30T12:56:35.232Z,4.60
2023-01-30T12:59:12.466Z,4.85
2023-01-30T13:02:04.815Z,5.30
2023-01-30T13:05:04.094Z,4.32
2023-01-30T13:07:48.030Z,3.55
2023-01-30T13:10:28.874Z,4.90
2023-01-30T13:13:33.299Z,4.68
2023-01-30T13:16:15.505Z,2.28
2023-01-30T13:18:47.434Z,3.42
2023-01-30T13:21:44.348Z,2.92
2023-01-30T13:24:33.893Z,3.47
2023-01-30T13:27:03.797Z,3.08
2023-01-30T13:29:39.570Z,4.63
2023-01-30T13:32:16.240Z,1.67
2023-01-30T13:34:47.562Z,4.82
2023-01-30T13:37:19.657Z,2.22
2023-01-30T13:39:55.390Z,4.25
2023-01-30T13:42:44.286Z,2.63
2023-01-30T13:45:33.195Z,3.28
2023-01-30T13:48:28.024Z,2.58
2023-01-30T13:51:24.339Z,2.75
2023-01-30T13:53:57.078Z,2.88
2023-01-30T13:56:47.264Z,2.88
2023-01-30T13:59:19.758Z,2.72
2023-01-30T14:02:04.467Z,2.92
2023-01-30T14:04:40.757Z,3.25
2023-01-30T14:07:38.649Z,3.72
2023-01-30T14:10:20.614Z,4.18
2023-01-30T14:12:50.973Z,4.97
2023-01-30T14:15:20.706Z,4.10
2023-01-30T14:18:07.475Z,4.28
2023-01-30T14:20:58.508Z,3.72
2023-01-30T14:23:30.395Z,5.45
2023-01-30T14:25:57.616Z,4.45
2023-01-30T14:28:24.519Z,4.47
2023-01-30T14:31:10.661Z,5.63
2023-01-30T14:33:51.393Z,4.53
2023-01-30T14:36:21.158Z,6.05
2023-01-30T14:38:57.576Z,5.47
2023-01-30T14:41:24.258Z,4.80
2023-01-30T14:43:53.626Z,7.03
2023-01-30T14:46:20.650Z,6.72
2023-01-30T14:49:16.059Z,6.82
2023-01-30T14:51:45.836Z,7.70
2023-01-30T14:54:13.054Z,9.82
2023-01-30T14:57:01.219Z,8.63
2023-01-30T14:59:37.072Z,11.20
2023-01-30T15:02:13.183Z,7.20
2023-01-30T15:05:02.055Z,6.50
2023-01-30T15:07:47.316Z,10.32
2023-01-30T15:10:32.898Z,7.72
2023-01-30T15:13:08.593Z,7.90
2023-01-30T15:15:41.230Z,9.20
2023-01-30T15:18:29.171Z,11.27
2023-01-30T15:21:01.803Z,9.38
2023-01-30T15:23:54.032Z,9.30
2023-01-30T15:26:35.457Z,9.38
2023-01-30T15:29:39.382Z,8.85
2023-01-30T15:32:27.078Z,10.48
2023-01-30T15:34:55.516Z,10.23
2023-01-30T15:37:47.945Z,12.23
2023-01-30T15:40:20.658Z,7.90
2023-01-30T15:42:52.086Z,7.60
2023-01-30T15:45:22.437Z,8.55
2023-01-30T15:48:16.769Z,8.10
2023-01-30T15:50:56.636Z,11.55
2023-01-30T15:53:31.182Z,12.70
2023-01-30T15:56:01.739Z,10.20
2023-01-30T15:58:29.719Z,9.90
2023-01-30T16:01:00.020Z,9.48
2023-01-30T16:03:38.971Z,7.47
2023-01-30T16:06:05.970Z,8.18
2023-01-30T16:08:34.984Z,8.73
2023-01-30T16:11:02.386Z,13.02
2023-01-30T16:13:29.758Z,9.30
2023-01-30T16:16:18.491Z,9.10
2023-01-30T16:18:53.523Z,9.48
2023-01-30T16:21:24.420Z,9.15
2023-01-30T16:24:02.974Z,9.20
2023-01-30T16:26:31.343Z,8.90
2023-01-30T16:29:05.062Z,14.63
2023-01-30T16:31:38.034Z,9.77
2023-01-30T16:34:05.543Z,10.48
2023-01-30T16:36:40.938Z,10.02
2023-01-30T16:39:42.967Z,11.07
2023-01-30T16:42:27.814Z,7.72
2023-01-30T16:45:12.962Z,8.95
2023-01-30T16:47:40.525Z,8.80
2023-01-30T16:50:20.203Z,11.27
2023-01-30T16:52:52.020Z,10.00
2023-01-30T16:55:22.050Z,12.02
2023-01-30T16:57:57.248Z,9.55
2023-01-30T17:00:28.832Z,11.77
2023-01-30T17:02:57.364Z,12.00
2023-01-30T17:05:27.823Z,8.48
2023-01-30T17:07:56.257Z,10.40
2023-01-30T17:10:28.825Z,8.63
2023-01-30T17:12:56.715Z,10.38
2023-01-30T17:15:31.261Z,10.25
2023-01-30T17:17:58.488Z,14.30
2023-01-30T17:20:33.572Z,10.82
2023-01-30T17:23:05.479Z,14.75
2023-01-30T17:25:43.890Z,10.70
2023-01-30T17:28:17.848Z,11.27
2023-01-30T17:30:44.728Z,10.80
2023-01-30T17:33:12.149Z,10.48
2023-01-30T17:35:39.029Z,10.52
2023-01-30T17:38:06.363Z,9.13
2023-01-30T17:40:37.899Z,8.98
2023-01-30T17:43:05.527Z,12.57
2023-01-30T17:45:32.300Z,10.45
2023-01-30T17:47:59.064Z,10.43
2023-01-30T17:50:25.871Z,16.23
2023-01-30T17:52:52.632Z,8.68
2023-01-30T17:55:21.449Z,10.45
2023-01-30T17:57:49.354Z,10.32
2023-01-30T18:00:19.588Z,9.90
2023-01-30T18:02:47.397Z,12.32
2023-01-30T18:05:14.657Z,13.10
2023-01-30T18:07:41.847Z,11.95
2023-01-30T18:10:16.770Z,8.55
2023-01-30T18:12:45.454Z,18.08
2023-01-30T18:15:16.249Z,14.23
2023-01-30T18:17:47.297Z,8.27
2023-01-30T18:20:16.024Z,9.48
2023-01-30T18:22:43.123Z,9.40
2023-01-30T18:25:13.340Z,10.77
2023-01-30T18:27:43.820Z,14.95
2023-01-30T18:30:14.503Z,8.82
2023-01-30T18:32:52.031Z,11.30
2023-01-30T18:35:19.509Z,14.57
2023-01-30T18:37:46.390Z,11.93
2023-01-30T18:40:15.289Z,19.30
2023-01-30T18:42:42.166Z,8.25
2023-01-30T18:45:09.581Z,8.27
2023-01-30T18:47:36.355Z,11.18
2023-01-30T18:50:03.668Z,11.38
2023-01-30T18:52:30.762Z,11.07
2023-01-30T18:54:57.541Z,10.10
2023-01-30T18:57:24.346Z,8.82
2023-01-30T18:59:51.037Z,10.90
2023-01-30T19:02:17.882Z,12.18
2023-01-30T19:04:44.897Z,6.60
2023-01-30T19:07:11.803Z,10.05
2023-01-30T19:09:38.686Z,10.15
2023-01-30T19:12:24.066Z,10.05
2023-01-30T19:14:50.889Z,9.30
2023-01-30T19:17:17.767Z,13.13
2023-01-30T19:19:46.027Z,8.15
2023-01-30T19:22:12.739Z,10.45
2023-01-30T19:24:39.507Z,12.13
2023-01-30T19:27:07.498Z,9.60
2023-01-30T19:29:34.221Z,12.18
2023-01-30T19:32:01.668Z,11.18
2023-01-30T19:34:28.575Z,13.73
2023-01-30T19:36:55.340Z,8.65
2023-01-30T19:39:22.324Z,8.77
2023-01-30T19:41:49.027Z,13.45
2023-01-30T19:44:15.792Z,12.95
2023-01-30T19:46:43.163Z,12.68
2023-01-30T19:49:11.850Z,13.98
2023-01-30T19:51:38.697Z,10.30
2023-01-30T19:54:07.550Z,10.80
2023-01-30T19:56:34.775Z,15.63
2023-01-30T19:59:02.278Z,13.32
2023-01-30T20:01:32.607Z,12.60
2023-01-30T20:04:00.766Z,9.98
2023-01-30T20:06:30.810Z,18.88
2023-01-30T20:09:00.298Z,11.60
2023-01-30T20:11:27.166Z,15.02
2023-01-30T20:13:54.140Z,13.85
2023-01-30T20:16:25.287Z,12.95
2023-01-30T20:19:16.187Z,12.63
2023-01-30T20:21:44.159Z,14.40
2023-01-30T20:24:15.597Z,10.27
2023-01-30T20:26:45.311Z,11.65
2023-01-30T20:29:16.704Z,13.43
2023-01-30T20:31:43.621Z,16.52
2023-01-30T20:34:12.589Z,11.80
2023-01-30T20:36:39.545Z,11.93
2023-01-30T20:39:07.571Z,14.30
2023-01-30T20:41:36.636Z,14.25
2023-01-30T20:44:06.080Z,17.92
2023-01-30T20:46:41.632Z,12.75
2023-01-30T20:49:19.495Z,10.40
2023-01-30T20:51:47.301Z,11.73
2023-01-30T20:54:14.973Z,13.20
2023-01-30T20:56:44.476Z,13.60
2023-01-30T20:59:14.849Z,11.57
2023-01-30T21:01:42.538Z,25.83
2023-01-30T21:04:13.605Z,11.45
2023-01-30T21:06:45.450Z,11.30
2023-01-30T21:09:21.873Z,17.13
2023-01-30T21:11:49.630Z,11.10
2023-01-30T21:14:17.319Z,14.05
2023-01-30T21:16:44.409Z,12.77
2023-01-30T21:19:15.061Z,14.00
2023-01-30T21:21:50.832Z,17.65
2023-01-30T21:24:23.986Z,15.75
2023-01-30T21:26:51.434Z,14.20
2023-01-30T21:29:20.812Z,18.50
2023-01-30T21:31:47.727Z,14.25
2023-01-30T21:34:14.773Z,13.38
2023-01-30T21:36:41.578Z,12.48
2023-01-30T21:39:31.560Z,19.02
2023-01-30T21:42:16.826Z,18.92
2023-01-30T21:44:43.527Z,14.13
2023-01-30T21:47:10.275Z,13.55
2023-01-30T21:49:37.092Z,16.92
2023-01-30T21:52:04.258Z,17.15
2023-01-30T21:54:30.958Z,12.75
2023-01-30T21:57:00.726Z,14.48
2023-01-30T21:59:27.463Z,13.43
2023-01-30T22:01:54.132Z,15.75
2023-01-30T22:04:20.944Z,13.52
2023-01-30T22:06:47.680Z,15.63
2023-01-30T22:09:15.657Z,11.55
2023-01-30T22:11:42.844Z,14.48
2023-01-30T22:14:13.178Z,16.23
2023-01-30T22:16:40.613Z,13.20
2023-01-30T22:19:09.681Z,14.27
2023-01-30T22:21:39.890Z,16.58
2023-01-30T22:24:08.628Z,11.27
2023-01-30T22:26:36.730Z,15.65
2023-01-30T22:29:05.212Z,10.15
2023-01-30T22:31:36.577Z,11.10
2023-01-30T22:34:04.908Z,14.50
2023-01-30T22:36:33.112Z,13.20
2023-01-30T22:38:59.938Z,12.95
2023-01-30T22:41:28.557Z,15.43
2023-01-30T22:44:00.081Z,17.48
2023-01-30T22:46:32.268Z,11.57
2023-01-30T22:49:00.813Z,16.15
2023-01-30T22:51:29.886Z,14.85
2023-01-30T22:54:02.565Z,11.90
2023-01-30T22:56:34.239Z,10.93
2023-01-30T22:59:01.035Z,11.27
2023-01-30T23:01:33.327Z,15.25
2023-01-30T23:04:21.805Z,13.85
2023-01-30T23:06:49.857Z,14.05
2023-01-30T23:09:19.411Z,13.02
2023-01-30T23:12:12.859Z,13.20
2023-01-30T23:14:40.563Z,10.43
2023-01-30T23:17:26.496Z,11.65
2023-01-30T23:19:54.480Z,12.10
2023-01-30T23:22:21.849Z,13.63
2023-01-30T23:24:48.857Z,15.70
2023-01-30T23:27:15.670Z,9.77
2023-01-30T23:29:42.358Z,15.00
2023-01-30T23:32:09.151Z,10.65
2023-01-30T23:34:36.481Z,8.55
2023-01-30T23:37:03.320Z,15.00
2023-01-30T23:39:30.165Z,11.02
2023-01-30T23:41:56.862Z,9.00
2023-01-30T23:44:23.692Z,10.65
2023-01-30T23:46:50.474Z,11.75
2023-01-30T23:49:17.253Z,10.82
2023-01-30T23:51:44.892Z,17.98
2023-01-30T23:54:14.849Z,9.50
2023-01-30T23:56:44.771Z,11.70
2023-01-30T23:59:11.876Z,11.85
